Creole Sue — WDC3303 — position and weather

sailwx.info

Track history (hours):
 
Tides and Currents Weather Stations Pressure Air Temp Water Temp Dewpoint Dewpoint Depression Visibility Wind Speed Wind Dir Waves Ship Positions

Creole Sue

Owner: LeBeouf Bros. Towing, L.L.C., Houma, LA. More information available from US FCC via Universal Licensing System and Coast Guard Vessel Documentation Center.

Last reported at 2018-Jun-21 10:00 UTC. Time now 2018-Jun-21 10:09 UTC.
Position N 29°50' W 092°18'.

Length 27 m; draft 2 m.

Type: Towing. MMSI: 367005520.

Date/timePositionNaut miles runAvg speedWind from/ knotsBaromVisibWave heightAir tempDewpointWater temp
2018-Jun-21 10:00N 29°50' W 092°18'0 0.0
2018-Jun-21 09:31N 29°50' W 092°18'0 0.0
2018-Jun-21 09:00N 29°50' W 092°18'0 0.0
2018-Jun-21 08:30N 29°50' W 092°18'0 0.0
2018-Jun-21 08:00N 29°50' W 092°18'0 0.0
2018-Jun-21 07:30N 29°50' W 092°18'0 0.0
2018-Jun-21 07:00N 29°50' W 092°18'0 0.0
2018-Jun-21 06:30N 29°50' W 092°18'0 0.0
2018-Jun-21 06:00N 29°50' W 092°18'0 0.0
2018-Jun-21 05:30N 29°50' W 092°18'0 0.0
2018-Jun-21 05:00N 29°50' W 092°18'0 0.0
2018-Jun-21 04:30N 29°50' W 092°18'0 0.0
2018-Jun-21 04:01N 29°50' W 092°18'0 0.0
2018-Jun-21 03:31N 29°50' W 092°18'0 0.0
2018-Jun-21 02:59N 29°50' W 092°18'0 0.0
2018-Jun-21 02:30N 29°50' W 092°18'0 0.0
2018-Jun-21 02:00N 29°50' W 092°18'0 0.0
2018-Jun-21 01:30N 29°50' W 092°18'0 0.0
2018-Jun-21 01:00N 29°50' W 092°18'0 0.0
2018-Jun-21 00:30N 29°50' W 092°18'0 0.0
2018-Jun-21 00:01N 29°50' W 092°18'0 0.0
2018-Jun-20 23:30N 29°50' W 092°18'0 0.0
2018-Jun-20 23:00N 29°50' W 092°18'0 0.0
2018-Jun-20 22:30N 29°50' W 092°18'0 0.0
2018-Jun-20 22:00N 29°50' W 092°18'0 0.0
2018-Jun-20 21:30N 29°50' W 092°18'0 0.0
2018-Jun-20 21:00N 29°50' W 092°18'0 0.0
2018-Jun-20 20:30N 29°50' W 092°18'0 0.0
2018-Jun-20 20:00N 29°50' W 092°18'0 0.0
2018-Jun-20 19:19N 29°50' W 092°18'0 0.0
2018-Jun-20 19:00N 29°50' W 092°18'0 0.0
2018-Jun-20 18:31N 29°50' W 092°18'0 0.0
2018-Jun-20 18:00N 29°50' W 092°18'0 0.4
2018-Jun-20 17:30N 29°50' W 092°18'35 5.7
2018-Jun-20 11:21N 29°56' W 092°58'1 3.9
2018-Jun-20 11:00N 29°56' W 092°60'3 6.1
2018-Jun-20 10:30N 29°56' W 093°03'3 5.8
2018-Jun-20 10:00N 29°56' W 093°07'3 5.6
2018-Jun-20 09:30N 29°56' W 093°10'3 5.4
2018-Jun-20 09:00N 29°58' W 093°12'2 4.6
2018-Jun-20 08:30N 30°00' W 093°13'2 4.7
2018-Jun-20 08:01N 30°02' W 093°15'2 4.3
2018-Jun-20 07:30N 30°04' W 093°16'2 3.9
2018-Jun-20 07:01N 30°05' W 093°18'1 2.6
2018-Jun-20 06:30N 30°06' W 093°18'0 0.0
2018-Jun-20 06:00N 30°06' W 093°18'0 0.0
2018-Jun-20 05:31N 30°06' W 093°18'0 0.0
2018-Jun-20 05:00N 30°06' W 093°18'0 0.0
2018-Jun-20 04:30N 30°06' W 093°18'0 0.0
2018-Jun-20 04:00N 30°06' W 093°18'0 0.0
2018-Jun-20 03:30N 30°06' W 093°18'0 0.0
2018-Jun-20 03:00N 30°06' W 093°18'0 0.0
2018-Jun-20 02:30N 30°06' W 093°18'0 0.0
2018-Jun-20 02:01N 30°06' W 093°18'0 0.0
2018-Jun-20 01:31N 30°06' W 093°18'0 0.0
2018-Jun-20 01:00N 30°06' W 093°18'0 0.0
2018-Jun-20 00:30N 30°06' W 093°18'0 0.0
2018-Jun-20 00:00N 30°06' W 093°18'0 0.0
2018-Jun-19 23:31N 30°06' W 093°18'0 0.0
2018-Jun-19 23:01N 30°06' W 093°18'0 0.0
2018-Jun-19 22:30N 30°06' W 093°18'0 0.0
2018-Jun-19 22:01N 30°06' W 093°18'0 0.0
2018-Jun-19 21:31N 30°06' W 093°18'0 0.0
2018-Jun-19 21:00N 30°06' W 093°18'0 0.0
2018-Jun-19 20:30N 30°06' W 093°18'0 0.0
2018-Jun-19 20:00N 30°06' W 093°18'0 0.7
2018-Jun-19 19:30N 30°06' W 093°19'2 4.7
2018-Jun-19 19:00N 30°04' W 093°21'2 3.8
2018-Jun-19 18:30N 30°06' W 093°19'1 2.2
2018-Jun-19 18:00N 30°06' W 093°18'0 0.0
2018-Jun-19 17:30N 30°06' W 093°18'0 0.0
2018-Jun-19 17:00N 30°06' W 093°18'0 0.0
2018-Jun-19 16:30N 30°06' W 093°18'0 0.0
2018-Jun-19 16:01N 30°06' W 093°18'0 0.0
2018-Jun-19 15:30N 30°06' W 093°18'0 0.0
2018-Jun-19 15:00N 30°06' W 093°18'0 0.0
2018-Jun-19 14:31N 30°06' W 093°18'0 0.0
2018-Jun-19 14:00N 30°06' W 093°18'0 0.0
2018-Jun-19 13:31N 30°06' W 093°18'0 0.0
2018-Jun-19 13:01N 30°06' W 093°18'0 0.0
2018-Jun-19 12:30N 30°06' W 093°18'0 0.0
2018-Jun-19 12:00N 30°06' W 093°18'0 0.0
2018-Jun-19 11:30N 30°06' W 093°18'0 0.0
2018-Jun-19 11:01N 30°06' W 093°18'0 0.0
2018-Jun-19 10:30N 30°06' W 093°18'0 0.0
2018-Jun-19 10:00N 30°06' W 093°18'0 0.0
2018-Jun-19 09:31N 30°06' W 093°18'0 0.0
2018-Jun-19 09:01N 30°06' W 093°18'0 0.0
2018-Jun-19 08:30N 30°06' W 093°18'0 0.0
2018-Jun-19 08:00N 30°06' W 093°18'0 0.0
2018-Jun-19 07:31N 30°06' W 093°18'0 0.0
2018-Jun-19 07:01N 30°06' W 093°18'0 0.0
2018-Jun-19 06:30N 30°06' W 093°18'0 0.0
2018-Jun-19 06:00N 30°06' W 093°18'0 0.0
2018-Jun-19 05:31N 30°06' W 093°18'0 0.0
2018-Jun-19 05:00N 30°06' W 093°18'0 0.0
2018-Jun-19 04:30N 30°06' W 093°18'0 0.0
2018-Jun-19 04:01N 30°06' W 093°18'0 0.0
2018-Jun-19 03:30N 30°06' W 093°18'0 0.0
2018-Jun-19 03:00N 30°06' W 093°18'0 0.0
2018-Jun-19 02:30N 30°06' W 093°18'0 0.0
2018-Jun-19 02:00N 30°06' W 093°18'0 0.0
2018-Jun-19 01:30N 30°06' W 093°18'0 0.0
2018-Jun-19 01:00N 30°06' W 093°18'0 0.0
2018-Jun-19 00:30N 30°06' W 093°18'0 0.0
2018-Jun-19 00:01N 30°06' W 093°18'0 0.0
2018-Jun-18 23:30N 30°06' W 093°18'0 0.0
2018-Jun-18 23:01N 30°06' W 093°18'0 0.0
2018-Jun-18 22:30N 30°06' W 093°18'0 0.3
2018-Jun-18 22:01N 30°06' W 093°18'0 0.3
2018-Jun-18 21:31N 30°06' W 093°18'0 0.0
2018-Jun-18 21:01N 30°06' W 093°18'0 0.0
2018-Jun-18 20:30N 30°06' W 093°18'0 0.0
2018-Jun-18 20:00N 30°06' W 093°18'0 0.0
2018-Jun-18 19:31N 30°06' W 093°18'0 0.0
2018-Jun-18 19:00N 30°06' W 093°18'0 0.0
2018-Jun-18 18:30N 30°06' W 093°18'0 0.0
2018-Jun-18 18:01N 30°06' W 093°18'0 0.0
2018-Jun-18 17:30N 30°06' W 093°18'0 0.0
2018-Jun-18 17:00N 30°06' W 093°18'0 0.0
2018-Jun-18 16:30N 30°06' W 093°18'0 0.0
2018-Jun-18 16:00N 30°06' W 093°18'0 0.0
2018-Jun-18 15:30N 30°06' W 093°18'0 0.0
2018-Jun-18 15:00N 30°06' W 093°18'0 0.0
2018-Jun-18 14:30N 30°06' W 093°18'0 0.0
2018-Jun-18 14:00N 30°06' W 093°18'0 0.0
2018-Jun-18 13:30N 30°06' W 093°18'0 0.0
2018-Jun-18 13:00N 30°06' W 093°18'0 0.0
2018-Jun-18 12:30N 30°06' W 093°18'0 0.0
2018-Jun-18 12:00N 30°06' W 093°18'0 0.0
2018-Jun-18 11:30N 30°06' W 093°18'0 0.0
2018-Jun-18 11:00N 30°06' W 093°18'0 0.0
2018-Jun-18 10:31N 30°06' W 093°18'0 0.0
2018-Jun-18 10:00N 30°06' W 093°18'0 0.0
2018-Jun-18 09:30N 30°06' W 093°18'0 0.0
2018-Jun-18 09:01N 30°06' W 093°18'0 0.0
2018-Jun-18 08:31N 30°06' W 093°18'0 0.0
2018-Jun-18 08:00N 30°06' W 093°18'0 0.0
2018-Jun-18 07:31N 30°06' W 093°18'0 0.0
2018-Jun-18 07:00N 30°06' W 093°18'0 0.0
2018-Jun-18 06:31N 30°06' W 093°18'0 0.0
2018-Jun-18 06:01N 30°06' W 093°18'0 0.0
2018-Jun-18 05:30N 30°06' W 093°18'0 0.0
2018-Jun-18 05:01N 30°06' W 093°18'0 0.0
2018-Jun-18 04:30N 30°06' W 093°18'0 0.0
2018-Jun-18 04:00N 30°06' W 093°18'0 0.0
2018-Jun-18 03:31N 30°06' W 093°18'0 0.0
2018-Jun-18 03:01N 30°06' W 093°18'0 0.0
2018-Jun-18 02:31N 30°06' W 093°18'0 0.0
2018-Jun-18 02:00N 30°06' W 093°18'0 0.0
2018-Jun-18 01:31N 30°06' W 093°18'0 0.0
2018-Jun-18 01:00N 30°06' W 093°18'0 0.0
2018-Jun-18 00:31N 30°06' W 093°18'1 1.5
2018-Jun-18 00:00N 30°06' W 093°18'1 1.3
2018-Jun-17 23:31N 30°05' W 093°18'1 1.7
2018-Jun-17 23:00N 30°05' W 093°17'0 0.1
2018-Jun-17 22:30N 30°05' W 093°17'0 0.0
2018-Jun-17 22:01N 30°05' W 093°17'0 0.0
2018-Jun-17 21:28N 30°05' W 093°17'0 0.0
2018-Jun-17 21:00N 30°05' W 093°17'0 0.0
2018-Jun-17 20:30N 30°05' W 093°17'0 0.2
2018-Jun-17 20:00N 30°05' W 093°17'0 0.0
2018-Jun-17 19:31N 30°05' W 093°17'0 0.0
2018-Jun-17 19:01N 30°05' W 093°17'0 0.0
2018-Jun-17 18:31N 30°05' W 093°17'0 0.0
2018-Jun-17 18:00N 30°05' W 093°17'0 0.0
2018-Jun-17 17:30N 30°05' W 093°17'0 0.0
2018-Jun-17 17:00N 30°05' W 093°17'0 0.0
2018-Jun-17 16:30N 30°05' W 093°17'0 0.0
2018-Jun-17 16:00N 30°05' W 093°17'0 0.0
2018-Jun-17 15:30N 30°05' W 093°17'0 0.0
2018-Jun-17 15:00N 30°05' W 093°17'0 0.0
2018-Jun-17 14:30N 30°05' W 093°17'0 0.6
2018-Jun-17 14:00N 30°05' W 093°17'2 3.0
2018-Jun-17 13:30N 30°03' W 093°16'2 3.6
2018-Jun-17 13:00N 30°02' W 093°15'0 0.0
2018-Jun-17 12:30N 30°02' W 093°15'0 0.0
2018-Jun-17 12:00N 30°02' W 093°15'0 0.0
2018-Jun-17 11:31N 30°02' W 093°15'0 0.5
2018-Jun-17 11:01N 30°02' W 093°14'0 0.0
2018-Jun-17 10:30N 30°02' W 093°14'0 0.0
2018-Jun-17 10:00N 30°02' W 093°14'0 0.0
2018-Jun-17 09:31N 30°02' W 093°14'0 0.0
2018-Jun-17 09:00N 30°02' W 093°14'0 0.0
2018-Jun-17 08:31N 30°02' W 093°14'0 0.0
2018-Jun-17 08:00N 30°02' W 093°14'0 0.6
2018-Jun-17 07:30N 30°01' W 093°14'0 0.8
2018-Jun-17 07:00N 30°01' W 093°14'4 4.1
2018-Jun-17 06:06N 29°58' W 093°11'0 2.0
2018-Jun-17 05:59N 29°58' W 093°11'0 0.0
2018-Jun-17 05:29N 29°58' W 093°11'0 0.0
2018-Jun-17 05:01N 29°58' W 093°11'0 0.2
2018-Jun-17 04:30N 29°58' W 093°11'2 3.3
2018-Jun-17 04:00N 29°56' W 093°10'2 4.0
2018-Jun-17 03:31N 29°56' W 093°08'35 4.1
2018-Jun-16 18:54N 29°54' W 092°27'2 4.2
2018-Jun-16 18:27N 29°53' W 092°25'4 4.0
2018-Jun-16 17:32N 29°51' W 092°22'0 4.3
2018-Jun-16 17:30N 29°51' W 092°21'2 4.4
2018-Jun-16 17:00N 29°50' W 092°19'0 0.6
2018-Jun-16 16:25N 29°50' W 092°19'0 0.1
2018-Jun-16 16:01N 29°50' W 092°19'2 2.7
2018-Jun-16 15:23N 29°49' W 092°17'2 4.3
2018-Jun-16 15:00N 29°48' W 092°16'2 4.6
2018-Jun-16 14:30N 29°47' W 092°13'1 2.0
2018-Jun-16 14:01N 29°47' W 092°12'2 4.1
2018-Jun-16 13:30N 29°47' W 092°10'2 4.8
2018-Jun-16 13:00N 29°47' W 092°07'2 4.6
2018-Jun-16 12:30N 29°48' W 092°05'8 0.4
2018-Jun-15 14:40N 29°51' W 091°56'1 6.4
2018-Jun-15 14:30N 29°50' W 091°57'4 7.6
2018-Jun-15 14:00N 29°49' W 092°01'3 6.9
2018-Jun-15 13:31N 29°48' W 092°05'4 7.4
2018-Jun-15 13:00N 29°47' W 092°09'3 6.0
2018-Jun-15 12:30N 29°47' W 092°12'1 1.7
2018-Jun-15 12:01N 29°48' W 092°13'1 2.9
2018-Jun-15 11:30N 29°48' W 092°15'2 4.4
2018-Jun-15 11:00N 29°49' W 092°17'4 7.0
2018-Jun-15 10:29N 29°51' W 092°21'37 6.7
2018-Jun-15 04:57N 29°56' W 093°03'2 5.4
2018-Jun-15 04:31N 29°56' W 093°06'3 5.4
2018-Jun-15 04:01N 29°56' W 093°09'3 5.2
2018-Jun-15 03:31N 29°58' W 093°11'2 3.2
2018-Jun-15 03:00N 29°59' W 093°12'3 4.8
2018-Jun-15 02:29N 30°01' W 093°14'3 5.4
2018-Jun-15 02:01N 30°03' W 093°16'3 5.2
2018-Jun-15 01:31N 30°05' W 093°17'1 1.4
2018-Jun-15 01:00N 30°06' W 093°18'1 1.5
2018-Jun-15 00:29N 30°06' W 093°18'0 0.0
2018-Jun-15 00:00N 30°06' W 093°18'0 0.0
2018-Jun-14 23:30N 30°06' W 093°18'0 0.0
2018-Jun-14 23:00N 30°06' W 093°18'0 0.0
2018-Jun-14 22:31N 30°06' W 093°18'0 0.0
2018-Jun-14 22:01N 30°06' W 093°18'0 0.0
2018-Jun-14 21:30N 30°06' W 093°18'0 0.0
2018-Jun-14 21:00N 30°06' W 093°18'0 0.0
2018-Jun-14 20:30N 30°06' W 093°18'0 0.0
2018-Jun-14 20:00N 30°06' W 093°18'0 0.0
2018-Jun-14 19:30N 30°06' W 093°18'0 0.0
2018-Jun-14 19:00N 30°06' W 093°18'0 0.0
2018-Jun-14 18:31N 30°06' W 093°18'0 0.0
2018-Jun-14 18:00N 30°06' W 093°18'0 0.0
2018-Jun-14 17:30N 30°06' W 093°18'0 0.0
2018-Jun-14 16:59N 30°06' W 093°18'0 0.0
2018-Jun-14 16:30N 30°06' W 093°18'0 0.0
2018-Jun-14 16:00N 30°06' W 093°18'0 0.0
2018-Jun-14 15:30N 30°06' W 093°18'0 0.0
2018-Jun-14 15:00N 30°06' W 093°18'0 0.0
2018-Jun-14 14:30N 30°06' W 093°18'0 0.0
2018-Jun-14 14:00N 30°06' W 093°18'0 0.0
2018-Jun-14 13:31N 30°06' W 093°18'0 0.0
2018-Jun-14 12:59N 30°06' W 093°18'0 0.0
2018-Jun-14 12:30N 30°06' W 093°18'0 0.0
2018-Jun-14 12:00N 30°06' W 093°18'0 0.0
2018-Jun-14 11:30N 30°06' W 093°18'0 0.0
2018-Jun-14 11:01N 30°06' W 093°18'0 0.0
2018-Jun-14 10:30N 30°06' W 093°18'0 0.0
2018-Jun-14 10:00N 30°06' W 093°18'0 0.0
2018-Jun-14 09:30N 30°06' W 093°18'0 0.0
2018-Jun-14 09:01N 30°06' W 093°18'0 0.0
2018-Jun-14 08:30N 30°06' W 093°18'0 0.0
2018-Jun-14 08:00N 30°06' W 093°18'0 0.0
2018-Jun-14 07:31N 30°06' W 093°18'0 0.0
2018-Jun-14 06:59N 30°06' W 093°18'0 0.0
2018-Jun-14 06:30N 30°06' W 093°18'0 0.0
2018-Jun-14 06:00N 30°06' W 093°18'0 0.0
2018-Jun-14 05:30N 30°06' W 093°18'0 0.0
2018-Jun-14 05:01N 30°06' W 093°18'0 0.0
2018-Jun-14 04:30N 30°06' W 093°18'0 0.0
2018-Jun-14 03:59N 30°06' W 093°18'0 0.0
2018-Jun-14 03:30N 30°06' W 093°18'0 0.0
2018-Jun-14 03:00N 30°06' W 093°18'0 0.0
2018-Jun-14 02:30N 30°06' W 093°18'1 1.3
2018-Jun-14 02:00N 30°06' W 093°19'2 3.8
2018-Jun-14 01:30N 30°08' W 093°20'1 1.2
2018-Jun-14 01:00N 30°08' W 093°19'0 0.0
2018-Jun-14 00:30N 30°08' W 093°19'0 0.0
2018-Jun-14 00:01N 30°08' W 093°19'0 0.0
2018-Jun-13 23:31N 30°08' W 093°19'0 0.0
2018-Jun-13 23:01N 30°08' W 093°19'0 0.0
2018-Jun-13 22:31N 30°08' W 093°19'0 0.0
2018-Jun-13 22:00N 30°08' W 093°19'0 0.0
2018-Jun-13 21:30N 30°08' W 093°19'0 0.0
2018-Jun-13 21:01N 30°08' W 093°19'0 0.0
2018-Jun-13 20:30N 30°08' W 093°19'0 0.0
2018-Jun-13 20:00N 30°08' W 093°19'0 0.0
2018-Jun-13 19:30N 30°08' W 093°19'0 0.0
2018-Jun-13 19:00N 30°08' W 093°19'0 0.0
2018-Jun-13 18:31N 30°08' W 093°19'0 0.0
2018-Jun-13 18:00N 30°08' W 093°19'0 0.0
2018-Jun-13 17:31N 30°08' W 093°19'1 2.1
2018-Jun-13 17:00N 30°07' W 093°20'2 3.6
2018-Jun-13 16:31N 30°05' W 093°19'1 1.1
2018-Jun-13 16:00N 30°05' W 093°20'0 0.0
2018-Jun-13 15:30N 30°05' W 093°20'0 0.0
2018-Jun-13 15:00N 30°05' W 093°20'0 0.0
2018-Jun-13 14:30N 30°05' W 093°20'0 0.0
2018-Jun-13 14:00N 30°05' W 093°20'0 0.0
2018-Jun-13 13:31N 30°05' W 093°20'0 0.0
2018-Jun-13 13:00N 30°05' W 093°20'0 0.0
2018-Jun-13 12:30N 30°05' W 093°20'0 0.0
2018-Jun-13 12:01N 30°05' W 093°20'0 0.0
2018-Jun-13 11:31N 30°05' W 093°20'0 0.0
2018-Jun-13 11:00N 30°05' W 093°20'0 0.0
2018-Jun-13 10:31N 30°05' W 093°20'0 0.0
2018-Jun-13 10:00N 30°05' W 093°20'0 0.0
2018-Jun-13 09:30N 30°05' W 093°20'0 0.0
2018-Jun-13 09:01N 30°05' W 093°20'0 0.0
2018-Jun-13 08:30N 30°05' W 093°20'0 0.0
2018-Jun-13 08:00N 30°05' W 093°20'0 0.0
2018-Jun-13 07:31N 30°05' W 093°20'0 0.0
2018-Jun-13 07:00N 30°05' W 093°20'0 0.0
2018-Jun-13 06:30N 30°05' W 093°20'0 0.0
2018-Jun-13 06:00N 30°05' W 093°20'0 0.0
2018-Jun-13 05:30N 30°05' W 093°20'0 0.0
2018-Jun-13 04:58N 30°05' W 093°20'0 0.0
2018-Jun-13 04:30N 30°05' W 093°20'0 0.0
2018-Jun-13 04:01N 30°05' W 093°20'0 0.0
2018-Jun-13 03:30N 30°05' W 093°20'0 0.0
2018-Jun-13 03:00N 30°05' W 093°20'0 0.0
2018-Jun-13 02:31N 30°05' W 093°20'0 0.0
2018-Jun-13 02:00N 30°05' W 093°20'0 0.0
2018-Jun-13 01:31N 30°05' W 093°20'0 0.0
2018-Jun-13 01:00N 30°05' W 093°20'0 0.0
2018-Jun-13 00:27N 30°05' W 093°20'0 0.0
2018-Jun-13 00:01N 30°05' W 093°20'0 0.0
2018-Jun-12 23:30N 30°05' W 093°20'0 0.0
2018-Jun-12 23:00N 30°05' W 093°20'0 0.0
2018-Jun-12 22:30N 30°05' W 093°20'0 0.0
2018-Jun-12 22:00N 30°05' W 093°20'0 0.0
2018-Jun-12 21:30N 30°05' W 093°20'0 0.0
2018-Jun-12 21:01N 30°05' W 093°20'0 0.0
2018-Jun-12 20:30N 30°05' W 093°20'0 0.0
2018-Jun-12 19:59N 30°05' W 093°20'0 0.0
2018-Jun-12 19:30N 30°05' W 093°20'0 0.5
2018-Jun-12 19:01N 30°05' W 093°20'0 0.0
2018-Jun-12 18:30N 30°05' W 093°20'0 0.5
2018-Jun-12 18:00N 30°05' W 093°20'0 0.0
2018-Jun-12 17:30N 30°05' W 093°20'0 0.0
2018-Jun-12 17:00N 30°05' W 093°20'0 0.0
2018-Jun-12 16:31N 30°05' W 093°20'0 0.0
2018-Jun-12 16:00N 30°05' W 093°20'0 0.0
2018-Jun-12 15:30N 30°05' W 093°20'0 0.0
2018-Jun-12 15:00N 30°05' W 093°20'0 0.0
2018-Jun-12 14:30N 30°05' W 093°20'0 0.0
2018-Jun-12 14:00N 30°05' W 093°20'0 0.0
2018-Jun-12 13:30N 30°05' W 093°20'0 0.0
2018-Jun-12 13:01N 30°05' W 093°20'0 0.0
2018-Jun-12 12:30N 30°05' W 093°20'0 0.0
2018-Jun-12 12:00N 30°05' W 093°20'0 0.0
2018-Jun-12 11:30N 30°05' W 093°20'0 0.0
2018-Jun-12 11:00N 30°05' W 093°20'0 0.0
2018-Jun-12 10:31N 30°05' W 093°20'0 0.0
2018-Jun-12 10:01N 30°05' W 093°20'0 0.0
2018-Jun-12 09:30N 30°05' W 093°20'0 0.0
2018-Jun-12 09:01N 30°05' W 093°20'0 0.0
2018-Jun-12 08:29N 30°05' W 093°20'0 0.0
2018-Jun-12 08:00N 30°05' W 093°20'0 0.0
2018-Jun-12 07:30N 30°05' W 093°20'0 0.0
2018-Jun-12 06:59N 30°05' W 093°20'0 0.0
2018-Jun-12 06:30N 30°05' W 093°20'0 0.0
2018-Jun-12 06:00N 30°05' W 093°20'0 0.0
2018-Jun-12 05:30N 30°05' W 093°20'0 0.0
2018-Jun-12 05:00N 30°05' W 093°20'0 0.0
2018-Jun-12 04:31N 30°05' W 093°20'0 0.0
2018-Jun-12 04:01N 30°05' W 093°20'0 0.0
2018-Jun-12 03:30N 30°05' W 093°20'0 0.0
2018-Jun-12 02:57N 30°05' W 093°20'0 0.0
2018-Jun-12 02:30N 30°05' W 093°20'0 0.0
2018-Jun-12 02:01N 30°05' W 093°20'0 0.0
2018-Jun-12 01:30N 30°05' W 093°20'0 0.0
2018-Jun-12 01:00N 30°05' W 093°20'0 0.0
2018-Jun-12 00:30N 30°05' W 093°20'0 0.0
2018-Jun-11 23:59N 30°05' W 093°20'0 0.0
2018-Jun-11 23:30N 30°05' W 093°20'0 0.0
2018-Jun-11 23:00N 30°05' W 093°20'0 0.0
2018-Jun-11 22:30N 30°05' W 093°20'0 0.0
2018-Jun-11 21:58N 30°05' W 093°20'0 0.0
2018-Jun-11 21:30N 30°05' W 093°20'0 0.0
2018-Jun-11 21:00N 30°05' W 093°20'0 0.0
2018-Jun-11 20:31N 30°05' W 093°20'0 0.0
2018-Jun-11 20:00N 30°05' W 093°20'0 0.0
2018-Jun-11 19:30N 30°05' W 093°20'0 0.0
2018-Jun-11 19:00N 30°05' W 093°20'2 3.3
2018-Jun-11 18:30N 30°06' W 093°19'0 0.5
2018-Jun-11 18:01N 30°06' W 093°18'0 0.0
2018-Jun-11 17:31N 30°06' W 093°18'1 2.4
2018-Jun-11 17:00N 30°06' W 093°19'1 1.3
2018-Jun-11 16:28N 30°05' W 093°20'0 0.0
2018-Jun-11 16:00N 30°05' W 093°20'0 0.0
2018-Jun-11 15:29N 30°05' W 093°20'0 0.0
2018-Jun-11 15:00N 30°05' W 093°20'0 0.0
2018-Jun-11 14:30N 30°05' W 093°20'0 0.0
2018-Jun-11 14:01N 30°05' W 093°20'0 0.0
2018-Jun-11 13:30N 30°05' W 093°20'0 0.0
2018-Jun-11 13:01N 30°05' W 093°20'0 0.0
2018-Jun-11 12:31N 30°05' W 093°20'0 0.0
2018-Jun-11 12:00N 30°05' W 093°20'0 0.0
2018-Jun-11 11:31N 30°05' W 093°20'0 0.0
2018-Jun-11 11:00N 30°05' W 093°20'0 0.0
2018-Jun-11 10:30N 30°05' W 093°20'0 0.0
2018-Jun-11 10:01N 30°05' W 093°20'  
Track history (hours):
 
Tides and Currents Weather Stations Pressure Air Temp Water Temp Dewpoint Dewpoint Depression Visibility Wind Speed Wind Dir Waves Ship Positions

Creole Sue

Owner: LeBeouf Bros. Towing, L.L.C., Houma, LA. More information available from US FCC via Universal Licensing System and Coast Guard Vessel Documentation Center.

Last reported at 2018-Jun-21 10:00 UTC. Time now 2018-Jun-21 10:09 UTC.
Position N 29°50' W 092°18'.

Length 27 m; draft 2 m.

Type: Towing. MMSI: 367005520.

Date/timePositionNaut miles runAvg speedWind from/ knotsBaromVisibWave heightAir tempDewpointWater temp
2018-Jun-21 10:00N 29°50' W 092°18'0 0.0
2018-Jun-21 09:31N 29°50' W 092°18'0 0.0
2018-Jun-21 09:00N 29°50' W 092°18'0 0.0
2018-Jun-21 08:30N 29°50' W 092°18'0 0.0
2018-Jun-21 08:00N 29°50' W 092°18'0 0.0
2018-Jun-21 07:30N 29°50' W 092°18'0 0.0
2018-Jun-21 07:00N 29°50' W 092°18'0 0.0
2018-Jun-21 06:30N 29°50' W 092°18'0 0.0
2018-Jun-21 06:00N 29°50' W 092°18'0 0.0
2018-Jun-21 05:30N 29°50' W 092°18'0 0.0
2018-Jun-21 05:00N 29°50' W 092°18'0 0.0
2018-Jun-21 04:30N 29°50' W 092°18'0 0.0
2018-Jun-21 04:01N 29°50' W 092°18'0 0.0
2018-Jun-21 03:31N 29°50' W 092°18'0 0.0
2018-Jun-21 02:59N 29°50' W 092°18'0 0.0
2018-Jun-21 02:30N 29°50' W 092°18'0 0.0
2018-Jun-21 02:00N 29°50' W 092°18'0 0.0
2018-Jun-21 01:30N 29°50' W 092°18'0 0.0
2018-Jun-21 01:00N 29°50' W 092°18'0 0.0
2018-Jun-21 00:30N 29°50' W 092°18'0 0.0
2018-Jun-21 00:01N 29°50' W 092°18'0 0.0
2018-Jun-20 23:30N 29°50' W 092°18'0 0.0
2018-Jun-20 23:00N 29°50' W 092°18'0 0.0
2018-Jun-20 22:30N 29°50' W 092°18'0 0.0
2018-Jun-20 22:00N 29°50' W 092°18'0 0.0
2018-Jun-20 21:30N 29°50' W 092°18'0 0.0
2018-Jun-20 21:00N 29°50' W 092°18'0 0.0
2018-Jun-20 20:30N 29°50' W 092°18'0 0.0
2018-Jun-20 20:00N 29°50' W 092°18'0 0.0
2018-Jun-20 19:19N 29°50' W 092°18'0 0.0
2018-Jun-20 19:00N 29°50' W 092°18'0 0.0
2018-Jun-20 18:31N 29°50' W 092°18'0 0.0
2018-Jun-20 18:00N 29°50' W 092°18'0 0.4
2018-Jun-20 17:30N 29°50' W 092°18'35 5.7
2018-Jun-20 11:21N 29°56' W 092°58'1 3.9
2018-Jun-20 11:00N 29°56' W 092°60'3 6.1
2018-Jun-20 10:30N 29°56' W 093°03'3 5.8
2018-Jun-20 10:00N 29°56' W 093°07'3 5.6
2018-Jun-20 09:30N 29°56' W 093°10'3 5.4
2018-Jun-20 09:00N 29°58' W 093°12'2 4.6
2018-Jun-20 08:30N 30°00' W 093°13'2 4.7
2018-Jun-20 08:01N 30°02' W 093°15'2 4.3
2018-Jun-20 07:30N 30°04' W 093°16'2 3.9
2018-Jun-20 07:01N 30°05' W 093°18'1 2.6
2018-Jun-20 06:30N 30°06' W 093°18'0 0.0
2018-Jun-20 06:00N 30°06' W 093°18'0 0.0
2018-Jun-20 05:31N 30°06' W 093°18'0 0.0
2018-Jun-20 05:00N 30°06' W 093°18'0 0.0
2018-Jun-20 04:30N 30°06' W 093°18'0 0.0
2018-Jun-20 04:00N 30°06' W 093°18'0 0.0
2018-Jun-20 03:30N 30°06' W 093°18'0 0.0
2018-Jun-20 03:00N 30°06' W 093°18'0 0.0
2018-Jun-20 02:30N 30°06' W 093°18'0 0.0
2018-Jun-20 02:01N 30°06' W 093°18'0 0.0
2018-Jun-20 01:31N 30°06' W 093°18'0 0.0
2018-Jun-20 01:00N 30°06' W 093°18'0 0.0
2018-Jun-20 00:30N 30°06' W 093°18'0 0.0
2018-Jun-20 00:00N 30°06' W 093°18'0 0.0
2018-Jun-19 23:31N 30°06' W 093°18'0 0.0
2018-Jun-19 23:01N 30°06' W 093°18'0 0.0
2018-Jun-19 22:30N 30°06' W 093°18'0 0.0
2018-Jun-19 22:01N 30°06' W 093°18'0 0.0
2018-Jun-19 21:31N 30°06' W 093°18'0 0.0
2018-Jun-19 21:00N 30°06' W 093°18'0 0.0
2018-Jun-19 20:30N 30°06' W 093°18'0 0.0
2018-Jun-19 20:00N 30°06' W 093°18'0 0.7
2018-Jun-19 19:30N 30°06' W 093°19'2 4.7
2018-Jun-19 19:00N 30°04' W 093°21'2 3.8
2018-Jun-19 18:30N 30°06' W 093°19'1 2.2
2018-Jun-19 18:00N 30°06' W 093°18'0 0.0
2018-Jun-19 17:30N 30°06' W 093°18'0 0.0
2018-Jun-19 17:00N 30°06' W 093°18'0 0.0
2018-Jun-19 16:30N 30°06' W 093°18'0 0.0
2018-Jun-19 16:01N 30°06' W 093°18'0 0.0
2018-Jun-19 15:30N 30°06' W 093°18'0 0.0
2018-Jun-19 15:00N 30°06' W 093°18'0 0.0
2018-Jun-19 14:31N 30°06' W 093°18'0 0.0
2018-Jun-19 14:00N 30°06' W 093°18'0 0.0
2018-Jun-19 13:31N 30°06' W 093°18'0 0.0
2018-Jun-19 13:01N 30°06' W 093°18'0 0.0
2018-Jun-19 12:30N 30°06' W 093°18'0 0.0
2018-Jun-19 12:00N 30°06' W 093°18'0 0.0
2018-Jun-19 11:30N 30°06' W 093°18'0 0.0
2018-Jun-19 11:01N 30°06' W 093°18'0 0.0
2018-Jun-19 10:30N 30°06' W 093°18'0 0.0
2018-Jun-19 10:00N 30°06' W 093°18'0 0.0
2018-Jun-19 09:31N 30°06' W 093°18'0 0.0
2018-Jun-19 09:01N 30°06' W 093°18'0 0.0
2018-Jun-19 08:30N 30°06' W 093°18'0 0.0
2018-Jun-19 08:00N 30°06' W 093°18'0 0.0
2018-Jun-19 07:31N 30°06' W 093°18'0 0.0
2018-Jun-19 07:01N 30°06' W 093°18'0 0.0
2018-Jun-19 06:30N 30°06' W 093°18'0 0.0
2018-Jun-19 06:00N 30°06' W 093°18'0 0.0
2018-Jun-19 05:31N 30°06' W 093°18'0 0.0
2018-Jun-19 05:00N 30°06' W 093°18'0 0.0
2018-Jun-19 04:30N 30°06' W 093°18'0 0.0
2018-Jun-19 04:01N 30°06' W 093°18'0 0.0
2018-Jun-19 03:30N 30°06' W 093°18'0 0.0
2018-Jun-19 03:00N 30°06' W 093°18'0 0.0
2018-Jun-19 02:30N 30°06' W 093°18'0 0.0
2018-Jun-19 02:00N 30°06' W 093°18'0 0.0
2018-Jun-19 01:30N 30°06' W 093°18'0 0.0
2018-Jun-19 01:00N 30°06' W 093°18'0 0.0
2018-Jun-19 00:30N 30°06' W 093°18'0 0.0
2018-Jun-19 00:01N 30°06' W 093°18'0 0.0
2018-Jun-18 23:30N 30°06' W 093°18'0 0.0
2018-Jun-18 23:01N 30°06' W 093°18'0 0.0
2018-Jun-18 22:30N 30°06' W 093°18'0 0.3
2018-Jun-18 22:01N 30°06' W 093°18'0 0.3
2018-Jun-18 21:31N 30°06' W 093°18'0 0.0
2018-Jun-18 21:01N 30°06' W 093°18'0 0.0
2018-Jun-18 20:30N 30°06' W 093°18'0 0.0
2018-Jun-18 20:00N 30°06' W 093°18'0 0.0
2018-Jun-18 19:31N 30°06' W 093°18'0 0.0
2018-Jun-18 19:00N 30°06' W 093°18'0 0.0
2018-Jun-18 18:30N 30°06' W 093°18'0 0.0
2018-Jun-18 18:01N 30°06' W 093°18'0 0.0
2018-Jun-18 17:30N 30°06' W 093°18'0 0.0
2018-Jun-18 17:00N 30°06' W 093°18'0 0.0
2018-Jun-18 16:30N 30°06' W 093°18'0 0.0
2018-Jun-18 16:00N 30°06' W 093°18'0 0.0
2018-Jun-18 15:30N 30°06' W 093°18'0 0.0
2018-Jun-18 15:00N 30°06' W 093°18'0 0.0
2018-Jun-18 14:30N 30°06' W 093°18'0 0.0
2018-Jun-18 14:00N 30°06' W 093°18'0 0.0
2018-Jun-18 13:30N 30°06' W 093°18'0 0.0
2018-Jun-18 13:00N 30°06' W 093°18'0 0.0
2018-Jun-18 12:30N 30°06' W 093°18'0 0.0
2018-Jun-18 12:00N 30°06' W 093°18'0 0.0
2018-Jun-18 11:30N 30°06' W 093°18'0 0.0
2018-Jun-18 11:00N 30°06' W 093°18'0 0.0
2018-Jun-18 10:31N 30°06' W 093°18'0 0.0
2018-Jun-18 10:00N 30°06' W 093°18'0 0.0
2018-Jun-18 09:30N 30°06' W 093°18'0 0.0
2018-Jun-18 09:01N 30°06' W 093°18'0 0.0
2018-Jun-18 08:31N 30°06' W 093°18'0 0.0
2018-Jun-18 08:00N 30°06' W 093°18'0 0.0
2018-Jun-18 07:31N 30°06' W 093°18'0 0.0
2018-Jun-18 07:00N 30°06' W 093°18'0 0.0
2018-Jun-18 06:31N 30°06' W 093°18'0 0.0
2018-Jun-18 06:01N 30°06' W 093°18'0 0.0
2018-Jun-18 05:30N 30°06' W 093°18'0 0.0
2018-Jun-18 05:01N 30°06' W 093°18'0 0.0
2018-Jun-18 04:30N 30°06' W 093°18'0 0.0
2018-Jun-18 04:00N 30°06' W 093°18'0 0.0
2018-Jun-18 03:31N 30°06' W 093°18'0 0.0
2018-Jun-18 03:01N 30°06' W 093°18'0 0.0
2018-Jun-18 02:31N 30°06' W 093°18'0 0.0
2018-Jun-18 02:00N 30°06' W 093°18'0 0.0
2018-Jun-18 01:31N 30°06' W 093°18'0 0.0
2018-Jun-18 01:00N 30°06' W 093°18'0 0.0
2018-Jun-18 00:31N 30°06' W 093°18'1 1.5
2018-Jun-18 00:00N 30°06' W 093°18'1 1.3
2018-Jun-17 23:31N 30°05' W 093°18'1 1.7
2018-Jun-17 23:00N 30°05' W 093°17'0 0.1
2018-Jun-17 22:30N 30°05' W 093°17'0 0.0
2018-Jun-17 22:01N 30°05' W 093°17'0 0.0
2018-Jun-17 21:28N 30°05' W 093°17'0 0.0
2018-Jun-17 21:00N 30°05' W 093°17'0 0.0
2018-Jun-17 20:30N 30°05' W 093°17'0 0.2
2018-Jun-17 20:00N 30°05' W 093°17'0 0.0
2018-Jun-17 19:31N 30°05' W 093°17'0 0.0
2018-Jun-17 19:01N 30°05' W 093°17'0 0.0
2018-Jun-17 18:31N 30°05' W 093°17'0 0.0
2018-Jun-17 18:00N 30°05' W 093°17'0 0.0
2018-Jun-17 17:30N 30°05' W 093°17'0 0.0
2018-Jun-17 17:00N 30°05' W 093°17'0 0.0
2018-Jun-17 16:30N 30°05' W 093°17'0 0.0
2018-Jun-17 16:00N 30°05' W 093°17'0 0.0
2018-Jun-17 15:30N 30°05' W 093°17'0 0.0
2018-Jun-17 15:00N 30°05' W 093°17'0 0.0
2018-Jun-17 14:30N 30°05' W 093°17'0 0.6
2018-Jun-17 14:00N 30°05' W 093°17'2 3.0
2018-Jun-17 13:30N 30°03' W 093°16'2 3.6
2018-Jun-17 13:00N 30°02' W 093°15'0 0.0
2018-Jun-17 12:30N 30°02' W 093°15'0 0.0
2018-Jun-17 12:00N 30°02' W 093°15'0 0.0
2018-Jun-17 11:31N 30°02' W 093°15'0 0.5
2018-Jun-17 11:01N 30°02' W 093°14'0 0.0
2018-Jun-17 10:30N 30°02' W 093°14'0 0.0
2018-Jun-17 10:00N 30°02' W 093°14'0 0.0
2018-Jun-17 09:31N 30°02' W 093°14'0 0.0
2018-Jun-17 09:00N 30°02' W 093°14'0 0.0
2018-Jun-17 08:31N 30°02' W 093°14'0 0.0
2018-Jun-17 08:00N 30°02' W 093°14'0 0.6
2018-Jun-17 07:30N 30°01' W 093°14'0 0.8
2018-Jun-17 07:00N 30°01' W 093°14'4 4.1
2018-Jun-17 06:06N 29°58' W 093°11'0 2.0
2018-Jun-17 05:59N 29°58' W 093°11'0 0.0
2018-Jun-17 05:29N 29°58' W 093°11'0 0.0
2018-Jun-17 05:01N 29°58' W 093°11'0 0.2
2018-Jun-17 04:30N 29°58' W 093°11'2 3.3
2018-Jun-17 04:00N 29°56' W 093°10'2 4.0
2018-Jun-17 03:31N 29°56' W 093°08'35 4.1
2018-Jun-16 18:54N 29°54' W 092°27'2 4.2
2018-Jun-16 18:27N 29°53' W 092°25'4 4.0
2018-Jun-16 17:32N 29°51' W 092°22'0 4.3
2018-Jun-16 17:30N 29°51' W 092°21'2 4.4
2018-Jun-16 17:00N 29°50' W 092°19'0 0.6
2018-Jun-16 16:25N 29°50' W 092°19'0 0.1
2018-Jun-16 16:01N 29°50' W 092°19'2 2.7
2018-Jun-16 15:23N 29°49' W 092°17'2 4.3
2018-Jun-16 15:00N 29°48' W 092°16'2 4.6
2018-Jun-16 14:30N 29°47' W 092°13'1 2.0
2018-Jun-16 14:01N 29°47' W 092°12'2 4.1
2018-Jun-16 13:30N 29°47' W 092°10'2 4.8
2018-Jun-16 13:00N 29°47' W 092°07'2 4.6
2018-Jun-16 12:30N 29°48' W 092°05'8 0.4
2018-Jun-15 14:40N 29°51' W 091°56'1 6.4
2018-Jun-15 14:30N 29°50' W 091°57'4 7.6
2018-Jun-15 14:00N 29°49' W 092°01'3 6.9
2018-Jun-15 13:31N 29°48' W 092°05'4 7.4
2018-Jun-15 13:00N 29°47' W 092°09'3 6.0
2018-Jun-15 12:30N 29°47' W 092°12'1 1.7
2018-Jun-15 12:01N 29°48' W 092°13'1 2.9
2018-Jun-15 11:30N 29°48' W 092°15'2 4.4
2018-Jun-15 11:00N 29°49' W 092°17'4 7.0
2018-Jun-15 10:29N 29°51' W 092°21'37 6.7
2018-Jun-15 04:57N 29°56' W 093°03'2 5.4
2018-Jun-15 04:31N 29°56' W 093°06'3 5.4
2018-Jun-15 04:01N 29°56' W 093°09'3 5.2
2018-Jun-15 03:31N 29°58' W 093°11'2 3.2
2018-Jun-15 03:00N 29°59' W 093°12'3 4.8
2018-Jun-15 02:29N 30°01' W 093°14'3 5.4
2018-Jun-15 02:01N 30°03' W 093°16'3 5.2
2018-Jun-15 01:31N 30°05' W 093°17'1 1.4
2018-Jun-15 01:00N 30°06' W 093°18'1 1.5
2018-Jun-15 00:29N 30°06' W 093°18'0 0.0
2018-Jun-15 00:00N 30°06' W 093°18'0 0.0
2018-Jun-14 23:30N 30°06' W 093°18'0 0.0
2018-Jun-14 23:00N 30°06' W 093°18'0 0.0
2018-Jun-14 22:31N 30°06' W 093°18'0 0.0
2018-Jun-14 22:01N 30°06' W 093°18'0 0.0
2018-Jun-14 21:30N 30°06' W 093°18'0 0.0
2018-Jun-14 21:00N 30°06' W 093°18'0 0.0
2018-Jun-14 20:30N 30°06' W 093°18'0 0.0
2018-Jun-14 20:00N 30°06' W 093°18'0 0.0
2018-Jun-14 19:30N 30°06' W 093°18'0 0.0
2018-Jun-14 19:00N 30°06' W 093°18'0 0.0
2018-Jun-14 18:31N 30°06' W 093°18'0 0.0
2018-Jun-14 18:00N 30°06' W 093°18'0 0.0
2018-Jun-14 17:30N 30°06' W 093°18'0 0.0
2018-Jun-14 16:59N 30°06' W 093°18'0 0.0
2018-Jun-14 16:30N 30°06' W 093°18'0 0.0
2018-Jun-14 16:00N 30°06' W 093°18'0 0.0
2018-Jun-14 15:30N 30°06' W 093°18'0 0.0
2018-Jun-14 15:00N 30°06' W 093°18'0 0.0
2018-Jun-14 14:30N 30°06' W 093°18'0 0.0
2018-Jun-14 14:00N 30°06' W 093°18'0 0.0
2018-Jun-14 13:31N 30°06' W 093°18'0 0.0
2018-Jun-14 12:59N 30°06' W 093°18'0 0.0
2018-Jun-14 12:30N 30°06' W 093°18'0 0.0
2018-Jun-14 12:00N 30°06' W 093°18'0 0.0
2018-Jun-14 11:30N 30°06' W 093°18'0 0.0
2018-Jun-14 11:01N 30°06' W 093°18'0 0.0
2018-Jun-14 10:30N 30°06' W 093°18'0 0.0
2018-Jun-14 10:00N 30°06' W 093°18'0 0.0
2018-Jun-14 09:30N 30°06' W 093°18'0 0.0
2018-Jun-14 09:01N 30°06' W 093°18'0 0.0
2018-Jun-14 08:30N 30°06' W 093°18'0 0.0
2018-Jun-14 08:00N 30°06' W 093°18'0 0.0
2018-Jun-14 07:31N 30°06' W 093°18'0 0.0
2018-Jun-14 06:59N 30°06' W 093°18'0 0.0
2018-Jun-14 06:30N 30°06' W 093°18'0 0.0
2018-Jun-14 06:00N 30°06' W 093°18'0 0.0
2018-Jun-14 05:30N 30°06' W 093°18'0 0.0
2018-Jun-14 05:01N 30°06' W 093°18'0 0.0
2018-Jun-14 04:30N 30°06' W 093°18'0 0.0
2018-Jun-14 03:59N 30°06' W 093°18'0 0.0
2018-Jun-14 03:30N 30°06' W 093°18'0 0.0
2018-Jun-14 03:00N 30°06' W 093°18'0 0.0
2018-Jun-14 02:30N 30°06' W 093°18'1 1.3
2018-Jun-14 02:00N 30°06' W 093°19'2 3.8
2018-Jun-14 01:30N 30°08' W 093°20'1 1.2
2018-Jun-14 01:00N 30°08' W 093°19'0 0.0
2018-Jun-14 00:30N 30°08' W 093°19'0 0.0
2018-Jun-14 00:01N 30°08' W 093°19'0 0.0
2018-Jun-13 23:31N 30°08' W 093°19'0 0.0
2018-Jun-13 23:01N 30°08' W 093°19'0 0.0
2018-Jun-13 22:31N 30°08' W 093°19'0 0.0
2018-Jun-13 22:00N 30°08' W 093°19'0 0.0
2018-Jun-13 21:30N 30°08' W 093°19'0 0.0
2018-Jun-13 21:01N 30°08' W 093°19'0 0.0
2018-Jun-13 20:30N 30°08' W 093°19'0 0.0
2018-Jun-13 20:00N 30°08' W 093°19'0 0.0
2018-Jun-13 19:30N 30°08' W 093°19'0 0.0
2018-Jun-13 19:00N 30°08' W 093°19'0 0.0
2018-Jun-13 18:31N 30°08' W 093°19'0 0.0
2018-Jun-13 18:00N 30°08' W 093°19'0 0.0
2018-Jun-13 17:31N 30°08' W 093°19'1 2.1
2018-Jun-13 17:00N 30°07' W 093°20'2 3.6
2018-Jun-13 16:31N 30°05' W 093°19'1 1.1
2018-Jun-13 16:00N 30°05' W 093°20'0 0.0
2018-Jun-13 15:30N 30°05' W 093°20'0 0.0
2018-Jun-13 15:00N 30°05' W 093°20'0 0.0
2018-Jun-13 14:30N 30°05' W 093°20'0 0.0
2018-Jun-13 14:00N 30°05' W 093°20'0 0.0
2018-Jun-13 13:31N 30°05' W 093°20'0 0.0
2018-Jun-13 13:00N 30°05' W 093°20'0 0.0
2018-Jun-13 12:30N 30°05' W 093°20'0 0.0
2018-Jun-13 12:01N 30°05' W 093°20'0 0.0
2018-Jun-13 11:31N 30°05' W 093°20'0 0.0
2018-Jun-13 11:00N 30°05' W 093°20'0 0.0
2018-Jun-13 10:31N 30°05' W 093°20'0 0.0
2018-Jun-13 10:00N 30°05' W 093°20'0 0.0
2018-Jun-13 09:30N 30°05' W 093°20'0 0.0
2018-Jun-13 09:01N 30°05' W 093°20'0 0.0
2018-Jun-13 08:30N 30°05' W 093°20'0 0.0
2018-Jun-13 08:00N 30°05' W 093°20'0 0.0
2018-Jun-13 07:31N 30°05' W 093°20'0 0.0
2018-Jun-13 07:00N 30°05' W 093°20'0 0.0
2018-Jun-13 06:30N 30°05' W 093°20'0 0.0
2018-Jun-13 06:00N 30°05' W 093°20'0 0.0
2018-Jun-13 05:30N 30°05' W 093°20'0 0.0
2018-Jun-13 04:58N 30°05' W 093°20'0 0.0
2018-Jun-13 04:30N 30°05' W 093°20'0 0.0
2018-Jun-13 04:01N 30°05' W 093°20'0 0.0
2018-Jun-13 03:30N 30°05' W 093°20'0 0.0
2018-Jun-13 03:00N 30°05' W 093°20'0 0.0
2018-Jun-13 02:31N 30°05' W 093°20'0 0.0
2018-Jun-13 02:00N 30°05' W 093°20'0 0.0
2018-Jun-13 01:31N 30°05' W 093°20'0 0.0
2018-Jun-13 01:00N 30°05' W 093°20'0 0.0
2018-Jun-13 00:27N 30°05' W 093°20'0 0.0
2018-Jun-13 00:01N 30°05' W 093°20'0 0.0
2018-Jun-12 23:30N 30°05' W 093°20'0 0.0
2018-Jun-12 23:00N 30°05' W 093°20'0 0.0
2018-Jun-12 22:30N 30°05' W 093°20'0 0.0
2018-Jun-12 22:00N 30°05' W 093°20'0 0.0
2018-Jun-12 21:30N 30°05' W 093°20'0 0.0
2018-Jun-12 21:01N 30°05' W 093°20'0 0.0
2018-Jun-12 20:30N 30°05' W 093°20'0 0.0
2018-Jun-12 19:59N 30°05' W 093°20'0 0.0
2018-Jun-12 19:30N 30°05' W 093°20'0 0.5
2018-Jun-12 19:01N 30°05' W 093°20'0 0.0
2018-Jun-12 18:30N 30°05' W 093°20'0 0.5
2018-Jun-12 18:00N 30°05' W 093°20'0 0.0
2018-Jun-12 17:30N 30°05' W 093°20'0 0.0
2018-Jun-12 17:00N 30°05' W 093°20'0 0.0
2018-Jun-12 16:31N 30°05' W 093°20'0 0.0
2018-Jun-12 16:00N 30°05' W 093°20'0 0.0
2018-Jun-12 15:30N 30°05' W 093°20'0 0.0
2018-Jun-12 15:00N 30°05' W 093°20'0 0.0
2018-Jun-12 14:30N 30°05' W 093°20'0 0.0
2018-Jun-12 14:00N 30°05' W 093°20'0 0.0
2018-Jun-12 13:30N 30°05' W 093°20'0 0.0
2018-Jun-12 13:01N 30°05' W 093°20'0 0.0
2018-Jun-12 12:30N 30°05' W 093°20'0 0.0
2018-Jun-12 12:00N 30°05' W 093°20'0 0.0
2018-Jun-12 11:30N 30°05' W 093°20'0 0.0
2018-Jun-12 11:00N 30°05' W 093°20'0 0.0
2018-Jun-12 10:31N 30°05' W 093°20'0 0.0
2018-Jun-12 10:01N 30°05' W 093°20'0 0.0
2018-Jun-12 09:30N 30°05' W 093°20'0 0.0
2018-Jun-12 09:01N 30°05' W 093°20'0 0.0
2018-Jun-12 08:29N 30°05' W 093°20'0 0.0
2018-Jun-12 08:00N 30°05' W 093°20'0 0.0
2018-Jun-12 07:30N 30°05' W 093°20'0 0.0
2018-Jun-12 06:59N 30°05' W 093°20'0 0.0
2018-Jun-12 06:30N 30°05' W 093°20'0 0.0
2018-Jun-12 06:00N 30°05' W 093°20'0 0.0
2018-Jun-12 05:30N 30°05' W 093°20'0 0.0
2018-Jun-12 05:00N 30°05' W 093°20'0 0.0
2018-Jun-12 04:31N 30°05' W 093°20'0 0.0
2018-Jun-12 04:01N 30°05' W 093°20'0 0.0
2018-Jun-12 03:30N 30°05' W 093°20'0 0.0
2018-Jun-12 02:57N 30°05' W 093°20'0 0.0
2018-Jun-12 02:30N 30°05' W 093°20'0 0.0
2018-Jun-12 02:01N 30°05' W 093°20'0 0.0
2018-Jun-12 01:30N 30°05' W 093°20'0 0.0
2018-Jun-12 01:00N 30°05' W 093°20'0 0.0
2018-Jun-12 00:30N 30°05' W 093°20'0 0.0
2018-Jun-11 23:59N 30°05' W 093°20'0 0.0
2018-Jun-11 23:30N 30°05' W 093°20'0 0.0
2018-Jun-11 23:00N 30°05' W 093°20'0 0.0
2018-Jun-11 22:30N 30°05' W 093°20'0 0.0
2018-Jun-11 21:58N 30°05' W 093°20'0 0.0
2018-Jun-11 21:30N 30°05' W 093°20'0 0.0
2018-Jun-11 21:00N 30°05' W 093°20'0 0.0
2018-Jun-11 20:31N 30°05' W 093°20'0 0.0
2018-Jun-11 20:00N 30°05' W 093°20'0 0.0
2018-Jun-11 19:30N 30°05' W 093°20'0 0.0
2018-Jun-11 19:00N 30°05' W 093°20'2 3.3
2018-Jun-11 18:30N 30°06' W 093°19'0 0.5
2018-Jun-11 18:01N 30°06' W 093°18'0 0.0
2018-Jun-11 17:31N 30°06' W 093°18'1 2.4
2018-Jun-11 17:00N 30°06' W 093°19'1 1.3
2018-Jun-11 16:28N 30°05' W 093°20'0 0.0
2018-Jun-11 16:00N 30°05' W 093°20'0 0.0
2018-Jun-11 15:29N 30°05' W 093°20'0 0.0
2018-Jun-11 15:00N 30°05' W 093°20'0 0.0
2018-Jun-11 14:30N 30°05' W 093°20'0 0.0
2018-Jun-11 14:01N 30°05' W 093°20'0 0.0
2018-Jun-11 13:30N 30°05' W 093°20'0 0.0
2018-Jun-11 13:01N 30°05' W 093°20'0 0.0
2018-Jun-11 12:31N 30°05' W 093°20'0 0.0
2018-Jun-11 12:00N 30°05' W 093°20'0 0.0
2018-Jun-11 11:31N 30°05' W 093°20'0 0.0
2018-Jun-11 11:00N 30°05' W 093°20'0 0.0
2018-Jun-11 10:30N 30°05' W 093°20'0 0.0
2018-Jun-11 10:01N 30°05' W 093°20'  

Dump ship's entire track history